createdAt,value
2019-04-30T03:01:00.370Z,99.90
2019-04-30T03:03:29.924Z,99.90
2019-04-30T03:05:59.540Z,99.90
2019-04-30T03:08:29.821Z,99.90
2019-04-30T03:11:00.091Z,99.90
2019-04-30T03:13:29.983Z,99.90
2019-04-30T03:15:59.455Z,99.90
2019-04-30T03:18:33.095Z,99.90
2019-04-30T03:21:09.919Z,99.90
2019-04-30T03:23:39.171Z,99.90
2019-04-30T03:26:09.693Z,99.90
2019-04-30T03:28:39.693Z,99.90
2019-04-30T03:31:12.046Z,99.90
2019-04-30T03:33:42.489Z,99.90
2019-04-30T03:36:12.361Z,99.90
2019-04-30T03:38:40.196Z,99.90
2019-04-30T03:41:10.235Z,99.90
2019-04-30T03:43:40.066Z,99.90
2019-04-30T03:46:10.119Z,99.90
2019-04-30T03:48:39.543Z,99.90
2019-04-30T03:51:10.681Z,99.90
2019-04-30T03:53:42.398Z,99.90
2019-04-30T03:56:09.451Z,99.90
2019-04-30T03:58:39.569Z,99.90
2019-04-30T04:01:14.650Z,99.90
2019-04-30T04:04:01.236Z,99.90
2019-04-30T04:06:35.942Z,99.90
2019-04-30T04:09:33.663Z,99.90
2019-04-30T04:12:20.956Z,99.90
2019-04-30T04:14:51.007Z,99.90
2019-04-30T04:17:20.659Z,99.90
2019-04-30T04:19:50.496Z,99.90
2019-04-30T04:22:20.691Z,99.90
2019-04-30T04:24:50.357Z,99.90
2019-04-30T04:27:19.948Z,99.90
2019-04-30T04:29:51.121Z,99.90
2019-04-30T04:32:20.655Z,99.90
2019-04-30T04:34:50.398Z,99.90
2019-04-30T04:37:20.390Z,99.90
2019-04-30T04:39:50.192Z,99.90
2019-04-30T04:42:19.691Z,99.90
2019-04-30T04:44:50.270Z,99.90
2019-04-30T04:47:19.831Z,99.90
2019-04-30T04:49:53.297Z,99.90
2019-04-30T04:52:21.624Z,99.90
2019-04-30T04:54:50.820Z,99.90
2019-04-30T04:57:22.489Z,99.90
2019-04-30T04:59:50.294Z,99.90
2019-04-30T05:02:34.222Z,99.90
2019-04-30T05:05:02.780Z,99.90
2019-04-30T05:07:31.368Z,99.90
2019-04-30T05:10:00.981Z,99.90
2019-04-30T05:12:29.910Z,99.90
2019-04-30T05:14:59.722Z,99.90
2019-04-30T05:17:31.669Z,99.90
2019-04-30T05:19:58.954Z,99.90
2019-04-30T05:22:29.399Z,99.90
2019-04-30T05:24:58.831Z,99.90
2019-04-30T05:27:27.703Z,99.90
2019-04-30T05:29:56.310Z,99.90
2019-04-30T05:32:25.224Z,99.90
2019-04-30T05:34:54.098Z,99.90
2019-04-30T05:37:22.677Z,99.90
2019-04-30T05:39:51.269Z,99.90
2019-04-30T05:42:19.842Z,99.90
2019-04-30T05:44:49.698Z,99.90
2019-04-30T05:47:19.590Z,99.90
2019-04-30T05:49:48.910Z,99.90
2019-04-30T05:52:19.691Z,99.90
2019-04-30T05:54:48.809Z,99.90
2019-04-30T05:57:19.628Z,99.90
2019-04-30T05:59:48.704Z,99.90
2019-04-30T06:02:19.401Z,99.90
2019-04-30T06:04:48.908Z,99.90
2019-04-30T06:07:18.980Z,99.90
2019-04-30T06:09:59.576Z,99.90
2019-04-30T06:12:49.787Z,99.90
2019-04-30T06:15:32.014Z,99.90
2019-04-30T06:18:10.417Z,99.90
2019-04-30T06:20:31.051Z,99.90
2019-04-30T06:22:59.804Z,99.90
2019-04-30T06:25:37.234Z,99.90
2019-04-30T06:27:58.959Z,99.90
2019-04-30T06:30:29.856Z,99.90
2019-04-30T06:32:59.314Z,99.90
2019-04-30T06:35:29.446Z,99.90
2019-04-30T06:37:59.019Z,99.90
2019-04-30T06:40:29.335Z,99.90
2019-04-30T06:43:00.462Z,99.90
2019-04-30T06:45:29.005Z,99.90
2019-04-30T06:47:58.782Z,99.90
2019-04-30T06:50:29.178Z,99.90
2019-04-30T06:52:59.450Z,99.90
2019-04-30T06:55:30.609Z,99.90
2019-04-30T06:58:11.426Z,99.90
2019-04-30T07:00:36.272Z,99.90
2019-04-30T07:03:05.014Z,99.90
2019-04-30T07:05:33.898Z,99.90
2019-04-30T07:08:20.635Z,99.90
2019-04-30T07:11:11.154Z,99.90
2019-04-30T07:13:40.490Z,99.90
2019-04-30T07:16:10.996Z,99.90
2019-04-30T07:18:39.398Z,99.90
2019-04-30T07:21:08.744Z,99.90
2019-04-30T07:23:38.757Z,99.90
2019-04-30T07:26:09.033Z,99.90
2019-04-30T07:28:46.158Z,99.90
2019-04-30T07:31:14.026Z,99.90
2019-04-30T07:33:39.676Z,99.90
2019-04-30T07:36:09.695Z,99.70
2019-04-30T07:38:45.013Z,99.90
2019-04-30T07:41:09.672Z,99.90
2019-04-30T07:43:39.365Z,99.90
2019-04-30T07:46:09.297Z,99.90
2019-04-30T07:48:40.193Z,99.90
2019-04-30T07:51:10.418Z,99.90
2019-04-30T07:53:40.366Z,99.90
2019-04-30T07:56:24.057Z,98.30
2019-04-30T07:58:39.568Z,99.80
2019-04-30T08:01:10.395Z,99.80
2019-04-30T08:03:50.074Z,98.30
2019-04-30T08:06:22.167Z,98.50
2019-04-30T08:08:50.571Z,98.50
2019-04-30T08:11:25.760Z,98.60
2019-04-30T08:13:51.023Z,97.70
2019-04-30T08:16:20.067Z,97.10
2019-04-30T08:18:49.236Z,98.20
2019-04-30T08:21:18.993Z,95.80
2019-04-30T08:23:48.973Z,92.70
2019-04-30T08:26:18.781Z,95.20
2019-04-30T08:28:48.736Z,93.80
2019-04-30T08:31:19.564Z,93.90
2019-04-30T08:33:49.036Z,93.60
2019-04-30T08:36:19.651Z,92.60
2019-04-30T08:38:49.522Z,93.30
2019-04-30T08:41:19.286Z,92.50
2019-04-30T08:43:49.716Z,93.70
2019-04-30T08:46:19.150Z,95.50
2019-04-30T08:48:52.515Z,93.80
2019-04-30T08:51:19.058Z,91.80
2019-04-30T08:53:48.671Z,90.50
2019-04-30T08:56:21.661Z,90.90
2019-04-30T08:58:49.111Z,85.90
2019-04-30T09:01:19.579Z,89.00
2019-04-30T09:03:50.978Z,82.40
2019-04-30T09:06:24.676Z,76.40
2019-04-30T09:08:56.102Z,82.30
2019-04-30T09:11:33.568Z,87.00
2019-04-30T09:13:55.238Z,83.40
2019-04-30T09:16:24.164Z,75.40
2019-04-30T09:18:52.786Z,80.50
2019-04-30T09:21:21.367Z,77.50
2019-04-30T09:23:52.708Z,73.90
2019-04-30T09:26:20.395Z,80.90
2019-04-30T09:28:49.428Z,80.70
2019-04-30T09:31:19.782Z,86.20
2019-04-30T09:33:49.263Z,83.00
2019-04-30T09:36:20.581Z,83.20
2019-04-30T09:38:48.638Z,83.40
2019-04-30T09:41:19.145Z,81.40
2019-04-30T09:43:49.387Z,85.10
2019-04-30T09:46:26.296Z,85.20
2019-04-30T09:48:50.671Z,82.00
2019-04-30T09:51:20.688Z,76.00
2019-04-30T09:53:58.248Z,84.10
2019-04-30T09:56:20.195Z,78.70
2019-04-30T09:58:49.317Z,77.30
2019-04-30T10:01:17.974Z,76.70
2019-04-30T10:03:46.976Z,78.00
2019-04-30T10:06:15.995Z,83.80
2019-04-30T10:08:48.322Z,80.30
2019-04-30T10:11:20.558Z,80.10
2019-04-30T10:13:49.159Z,81.10
2019-04-30T10:16:29.523Z,84.90
2019-04-30T10:18:59.229Z,82.30
2019-04-30T10:21:29.037Z,85.20
2019-04-30T10:24:10.475Z,76.50
2019-04-30T10:26:28.719Z,80.40
2019-04-30T10:28:57.305Z,77.30
2019-04-30T10:31:25.872Z,75.40
2019-04-30T10:33:54.462Z,75.90
2019-04-30T10:36:23.038Z,79.70
2019-04-30T10:38:51.616Z,82.80
2019-04-30T10:41:20.206Z,74.80
2019-04-30T10:43:49.377Z,73.20
2019-04-30T10:46:18.366Z,82.00
2019-04-30T10:48:46.967Z,75.70
2019-04-30T10:51:15.533Z,78.90
2019-04-30T10:53:44.111Z,80.90
2019-04-30T10:56:12.822Z,69.00
2019-04-30T10:58:41.487Z,71.10
2019-04-30T11:01:10.095Z,72.60
2019-04-30T11:03:39.099Z,79.60
2019-04-30T11:06:08.666Z,73.90
2019-04-30T11:08:37.672Z,72.90
2019-04-30T11:11:06.591Z,77.30
2019-04-30T11:13:35.158Z,80.80
2019-04-30T11:16:12.638Z,76.80
2019-04-30T11:18:34.287Z,71.00
2019-04-30T11:21:03.096Z,71.40
2019-04-30T11:23:32.024Z,69.00
2019-04-30T11:26:01.585Z,73.30
2019-04-30T11:28:30.789Z,70.00
2019-04-30T11:31:18.926Z,73.20
2019-04-30T11:33:48.259Z,77.70
2019-04-30T11:36:19.200Z,70.50
2019-04-30T11:38:48.751Z,71.70
2019-04-30T11:41:29.551Z,74.60
2019-04-30T11:43:49.627Z,70.40
2019-04-30T11:47:05.699Z,68.00
2019-04-30T11:49:34.286Z,68.00
2019-04-30T11:52:02.872Z,66.40
2019-04-30T11:54:31.566Z,71.00
2019-04-30T11:57:00.223Z,65.70
2019-04-30T11:59:29.777Z,69.40
2019-04-30T12:02:00.333Z,67.00
2019-04-30T12:04:29.829Z,71.90
2019-04-30T12:07:01.055Z,72.20
2019-04-30T12:09:54.675Z,62.70
2019-04-30T12:12:24.130Z,64.70
2019-04-30T12:14:52.723Z,65.70
2019-04-30T12:17:21.294Z,66.60
2019-04-30T12:19:49.893Z,72.00
2019-04-30T12:22:20.220Z,63.80
2019-04-30T12:24:49.956Z,70.80
2019-04-30T12:27:19.101Z,61.30
2019-04-30T12:29:49.549Z,63.90
2019-04-30T12:32:19.153Z,60.90
2019-04-30T12:34:49.682Z,66.00
2019-04-30T12:37:19.108Z,62.50
2019-04-30T12:39:49.166Z,63.20
2019-04-30T12:42:18.922Z,60.60
2019-04-30T12:44:49.457Z,70.60
2019-04-30T12:47:20.068Z,63.30
2019-04-30T12:50:09.550Z,61.60
2019-04-30T12:52:46.978Z,65.00
2019-04-30T12:55:33.041Z,66.50
2019-04-30T12:58:01.936Z,64.70
2019-04-30T13:00:30.712Z,64.60
2019-04-30T13:02:59.294Z,65.70
2019-04-30T13:05:29.597Z,65.30
2019-04-30T13:08:00.203Z,60.80
2019-04-30T13:10:29.120Z,62.80
2019-04-30T13:12:58.200Z,67.80
2019-04-30T13:15:27.166Z,66.70
2019-04-30T13:17:55.763Z,67.70
2019-04-30T13:20:24.515Z,71.50
2019-04-30T13:22:53.330Z,70.10
2019-04-30T13:25:32.514Z,69.10
2019-04-30T13:27:55.543Z,69.10
2019-04-30T13:30:29.921Z,68.90
2019-04-30T13:33:32.923Z,68.60
2019-04-30T13:36:01.516Z,71.20
2019-04-30T13:38:49.041Z,70.10
2019-04-30T13:41:44.526Z,70.00
2019-04-30T13:44:15.231Z,70.30
2019-04-30T13:46:44.352Z,69.90
2019-04-30T13:49:13.226Z,73.40
2019-04-30T13:51:43.013Z,70.00
2019-04-30T13:54:12.239Z,70.40
2019-04-30T13:56:41.011Z,73.70
2019-04-30T13:59:09.661Z,77.40
2019-04-30T14:01:39.041Z,73.20
2019-04-30T14:04:14.354Z,75.70
2019-04-30T14:06:56.763Z,73.10
2019-04-30T14:09:27.412Z,72.70
2019-04-30T14:11:56.013Z,73.40
2019-04-30T14:14:24.586Z,72.70
2019-04-30T14:16:53.530Z,73.90
2019-04-30T14:19:22.109Z,74.80
2019-04-30T14:21:50.719Z,72.10
2019-04-30T14:24:19.365Z,71.00
2019-04-30T14:26:49.108Z,72.10
2019-04-30T14:29:17.862Z,72.10
2019-04-30T14:31:48.810Z,71.40
2019-04-30T14:34:18.571Z,70.50
2019-04-30T14:36:49.177Z,70.40
2019-04-30T14:39:17.785Z,69.20
2019-04-30T14:41:51.075Z,71.30
2019-04-30T14:44:22.320Z,70.70
2019-04-30T14:47:01.173Z,69.00
2019-04-30T14:50:01.924Z,72.20
2019-04-30T14:52:25.290Z,71.40
2019-04-30T14:55:12.089Z,71.00
2019-04-30T14:57:51.264Z,69.70
2019-04-30T15:00:32.402Z,71.40
2019-04-30T15:03:09.831Z,70.80
2019-04-30T15:05:43.556Z,70.50
2019-04-30T15:08:08.798Z,72.70
2019-04-30T15:10:37.387Z,73.70
2019-04-30T15:13:05.966Z,74.30
2019-04-30T15:15:34.564Z,73.20
2019-04-30T15:18:03.147Z,73.00
2019-04-30T15:20:31.726Z,73.70
2019-04-30T15:23:22.176Z,74.30
2019-04-30T15:25:51.110Z,76.70
2019-04-30T15:28:19.715Z,76.70
2019-04-30T15:30:48.892Z,75.10
2019-04-30T15:33:27.954Z,76.10
2019-04-30T15:35:56.567Z,77.90
2019-04-30T15:38:44.252Z,78.30
2019-04-30T15:41:12.901Z,78.20
2019-04-30T15:43:41.475Z,77.80
2019-04-30T15:46:10.066Z,77.40
2019-04-30T15:48:38.663Z,77.40
2019-04-30T15:51:08.988Z,78.20
2019-04-30T15:53:37.677Z,78.00
2019-04-30T15:56:06.288Z,81.10
2019-04-30T15:58:36.529Z,79.80
2019-04-30T16:01:06.910Z,79.50
2019-04-30T16:03:36.926Z,80.40
2019-04-30T16:06:05.506Z,80.70
2019-04-30T16:08:54.014Z,80.80
2019-04-30T16:11:45.053Z,80.90
2019-04-30T16:14:31.012Z,83.60
2019-04-30T16:17:05.311Z,82.40
2019-04-30T16:19:34.962Z,83.30
2019-04-30T16:22:04.296Z,83.60
2019-04-30T16:24:33.266Z,83.60
2019-04-30T16:27:04.583Z,83.40
2019-04-30T16:29:35.020Z,82.30
2019-04-30T16:32:05.367Z,84.80
2019-04-30T16:34:36.419Z,84.40
2019-04-30T16:37:04.997Z,83.40
2019-04-30T16:39:33.598Z,82.70
2019-04-30T16:42:02.186Z,83.50
2019-04-30T16:44:32.145Z,83.80
2019-04-30T16:47:13.150Z,84.60
2019-04-30T16:49:32.349Z,83.50
2019-04-30T16:52:01.656Z,84.40
2019-04-30T16:54:30.625Z,84.70
2019-04-30T16:57:05.959Z,84.50
2019-04-30T16:59:40.817Z,84.80
2019-04-30T17:02:10.629Z,84.20
2019-04-30T17:04:57.587Z,85.60
2019-04-30T17:07:35.467Z,84.80
2019-04-30T17:10:11.660Z,84.50
2019-04-30T17:13:02.608Z,84.40
2019-04-30T17:15:31.790Z,84.60
2019-04-30T17:18:00.366Z,86.80
2019-04-30T17:20:28.990Z,84.70
2019-04-30T17:22:59.377Z,85.50
2019-04-30T17:25:27.944Z,86.10
2019-04-30T17:28:01.146Z,87.60
2019-04-30T17:30:26.865Z,86.10
2019-04-30T17:32:55.459Z,86.70
2019-04-30T17:35:24.448Z,88.00
2019-04-30T17:37:53.042Z,88.20
2019-04-30T17:40:21.610Z,87.80
2019-04-30T17:42:50.214Z,88.50
2019-04-30T17:45:19.516Z,88.20
2019-04-30T17:47:48.317Z,88.10
2019-04-30T17:50:18.747Z,87.50
2019-04-30T17:52:47.838Z,88.90
2019-04-30T17:55:16.414Z,89.80
2019-04-30T17:57:45.576Z,89.00
2019-04-30T18:00:21.512Z,89.20
2019-04-30T18:02:45.702Z,90.00
2019-04-30T18:05:14.290Z,89.30
2019-04-30T18:07:43.220Z,89.20
2019-04-30T18:10:12.953Z,89.30
2019-04-30T18:12:41.616Z,89.90
2019-04-30T18:15:14.173Z,90.50
2019-04-30T18:17:44.422Z,90.20
2019-04-30T18:20:32.434Z,90.30
2019-04-30T18:23:15.947Z,90.40
2019-04-30T18:26:06.746Z,90.70
2019-04-30T18:28:35.422Z,90.40
2019-04-30T18:31:04.083Z,90.80
2019-04-30T18:33:32.702Z,90.40
2019-04-30T18:36:01.322Z,90.90
2019-04-30T18:38:31.116Z,90.90
2019-04-30T18:40:59.930Z,91.30
2019-04-30T18:43:28.824Z,90.80
2019-04-30T18:45:57.846Z,90.90
2019-04-30T18:48:26.406Z,91.30
2019-04-30T18:50:55.012Z,91.20
2019-04-30T18:53:26.297Z,91.30
2019-04-30T18:55:54.897Z,91.50
2019-04-30T18:58:23.499Z,91.90
2019-04-30T19:00:52.422Z,91.80
2019-04-30T19:03:21.913Z,91.80
2019-04-30T19:05:56.006Z,91.80
2019-04-30T19:08:30.878Z,92.10
2019-04-30T19:11:08.960Z,92.50
2019-04-30T19:13:56.261Z,92.50
2019-04-30T19:16:42.127Z,92.00
2019-04-30T19:19:40.214Z,92.60
2019-04-30T19:22:09.163Z,92.50
2019-04-30T19:24:37.925Z,92.40
2019-04-30T19:27:08.589Z,92.90
2019-04-30T19:29:37.246Z,92.90
2019-04-30T19:32:05.920Z,93.00
2019-04-30T19:34:34.497Z,93.10
2019-04-30T19:37:03.184Z,93.10
2019-04-30T19:39:32.527Z,93.60
2019-04-30T19:42:01.260Z,93.70
2019-04-30T19:44:29.947Z,94.00
2019-04-30T19:46:58.664Z,94.10
2019-04-30T19:49:27.214Z,93.50
2019-04-30T19:52:07.637Z,94.70
2019-04-30T19:54:26.421Z,94.70
2019-04-30T19:56:55.009Z,95.00
2019-04-30T19:59:23.580Z,95.10
2019-04-30T20:01:52.172Z,94.70
2019-04-30T20:04:32.649Z,95.00
2019-04-30T20:06:51.327Z,96.30
2019-04-30T20:09:19.941Z,95.30
2019-04-30T20:11:49.306Z,95.20
2019-04-30T20:14:18.711Z,95.90
2019-04-30T20:16:48.646Z,96.80
2019-04-30T20:19:17.764Z,96.70
2019-04-30T20:21:53.103Z,96.80
2019-04-30T20:24:16.976Z,96.80
2019-04-30T20:26:45.551Z,96.60
2019-04-30T20:29:14.182Z,96.60
2019-04-30T20:31:42.834Z,96.50
2019-04-30T20:34:11.495Z,96.70
2019-04-30T20:36:40.066Z,97.10
2019-04-30T20:39:27.003Z,96.80
2019-04-30T20:41:55.655Z,96.90
2019-04-30T20:44:24.218Z,96.90
2019-04-30T20:46:52.810Z,96.90
2019-04-30T20:49:21.379Z,96.80
2019-04-30T20:51:55.029Z,97.50
2019-04-30T20:54:20.365Z,97.30
2019-04-30T20:56:51.011Z,97.20
2019-04-30T20:59:19.536Z,96.80
2019-04-30T21:01:49.024Z,97.10
2019-04-30T21:04:20.629Z,97.70
2019-04-30T21:06:49.641Z,97.40
2019-04-30T21:09:18.335Z,97.60
2019-04-30T21:11:48.866Z,97.20
2019-04-30T21:14:19.278Z,97.30
2019-04-30T21:16:47.575Z,97.60
2019-04-30T21:19:16.225Z,97.80
2019-04-30T21:21:44.909Z,97.80
2019-04-30T21:24:13.546Z,98.40
2019-04-30T21:26:42.454Z,98.10
2019-04-30T21:29:15.676Z,98.00
2019-04-30T21:32:03.283Z,97.50
2019-04-30T21:34:45.139Z,98.10
2019-04-30T21:37:13.710Z,98.20
2019-04-30T21:39:42.279Z,98.50
2019-04-30T21:42:10.898Z,98.30
2019-04-30T21:44:39.442Z,98.30
2019-04-30T21:47:08.043Z,98.40
2019-04-30T21:49:36.598Z,98.50
2019-04-30T21:52:05.203Z,98.30
2019-04-30T21:54:33.788Z,98.30
2019-04-30T21:57:02.354Z,97.90
2019-04-30T21:59:31.242Z,98.60
2019-04-30T22:28:50.572Z,99.20
2019-04-30T22:31:19.800Z,98.80
2019-04-30T22:33:49.056Z,98.80
2019-04-30T22:36:23.151Z,98.80
2019-04-30T22:39:11.928Z,99.00
2019-04-30T22:41:39.861Z,99.10
2019-04-30T22:44:08.386Z,98.70
2019-04-30T22:46:36.967Z,98.80
2019-04-30T22:49:05.522Z,99.00
2019-04-30T22:51:34.111Z,99.30
2019-04-30T22:54:02.952Z,99.40
2019-04-30T22:56:31.514Z,99.50
2019-04-30T22:59:00.457Z,99.70
2019-04-30T23:01:40.259Z,99.40
2019-04-30T23:04:12.201Z,99.60
2019-04-30T23:06:40.758Z,99.40
2019-04-30T23:09:11.074Z,99.30
2019-04-30T23:11:39.778Z,99.30
2019-04-30T23:14:08.614Z,99.20
2019-04-30T23:16:37.200Z,99.20
2019-04-30T23:19:05.765Z,99.20
2019-04-30T23:21:34.325Z,98.90
2019-04-30T23:24:02.917Z,98.90
2019-04-30T23:26:31.484Z,98.90
2019-04-30T23:29:00.048Z,99.30
2019-04-30T23:31:28.638Z,99.40
2019-04-30T23:33:57.207Z,99.10
2019-04-30T23:36:25.774Z,99.00
2019-04-30T23:38:54.734Z,98.80
2019-04-30T23:41:23.308Z,99.40
2019-04-30T23:43:54.985Z,99.00
2019-04-30T23:46:23.105Z,99.70
2019-04-30T23:48:51.653Z,99.30
2019-04-30T23:51:20.526Z,99.50
2019-04-30T23:53:49.474Z,99.60
2019-04-30T23:56:18.043Z,99.60
2019-04-30T23:58:46.894Z,99.40
